sensor_id;sensor_type;location;lat;lon;timestamp;temperature;humidity
44607;DHT22;30315;46.072;14.474;2023-03-14T00:01:16;14.90;54.60
44607;DHT22;30315;46.072;14.474;2023-03-14T00:03:43;14.90;54.60
44607;DHT22;30315;46.072;14.474;2023-03-14T00:06:11;14.80;54.50
44607;DHT22;30315;46.072;14.474;2023-03-14T00:08:38;14.80;54.70
44607;DHT22;30315;46.072;14.474;2023-03-14T00:11:07;14.40;54.30
44607;DHT22;30315;46.072;14.474;2023-03-14T00:13:35;14.80;54.80
44607;DHT22;30315;46.072;14.474;2023-03-14T00:16:06;14.80;55.10
44607;DHT22;30315;46.072;14.474;2023-03-14T00:18:34;14.80;55.40
44607;DHT22;30315;46.072;14.474;2023-03-14T00:21:02;14.80;55.60
44607;DHT22;30315;46.072;14.474;2023-03-14T00:23:31;14.80;55.80
44607;DHT22;30315;46.072;14.474;2023-03-14T00:26:19;14.80;56.00
44607;DHT22;30315;46.072;14.474;2023-03-14T00:28:51;14.80;56.30
44607;DHT22;30315;46.072;14.474;2023-03-14T00:31:18;14.80;56.70
44607;DHT22;30315;46.072;14.474;2023-03-14T00:33:46;14.80;56.90
44607;DHT22;30315;46.072;14.474;2023-03-14T00:36:15;14.80;57.00
44607;DHT22;30315;46.072;14.474;2023-03-14T00:38:45;14.80;57.20
44607;DHT22;30315;46.072;14.474;2023-03-14T00:41:17;14.80;57.30
44607;DHT22;30315;46.072;14.474;2023-03-14T00:43:45;14.80;57.50
44607;DHT22;30315;46.072;14.474;2023-03-14T00:46:12;14.80;57.60
44607;DHT22;30315;46.072;14.474;2023-03-14T00:48:39;14.80;57.80
44607;DHT22;30315;46.072;14.474;2023-03-14T00:51:08;14.80;57.90
44607;DHT22;30315;46.072;14.474;2023-03-14T00:53:36;14.80;58.10
44607;DHT22;30315;46.072;14.474;2023-03-14T00:56:06;14.70;58.20
44607;DHT22;30315;46.072;14.474;2023-03-14T00:58:33;14.80;58.40
44607;DHT22;30315;46.072;14.474;2023-03-14T01:01:06;14.80;58.50
44607;DHT22;30315;46.072;14.474;2023-03-14T01:03:33;14.80;58.70
44607;DHT22;30315;46.072;14.474;2023-03-14T01:06:11;14.80;58.90
44607;DHT22;30315;46.072;14.474;2023-03-14T01:08:38;14.80;59.20
44607;DHT22;30315;46.072;14.474;2023-03-14T01:11:10;14.80;59.40
44607;DHT22;30315;46.072;14.474;2023-03-14T01:13:38;14.80;59.60
44607;DHT22;30315;46.072;14.474;2023-03-14T01:16:08;14.80;59.70
44607;DHT22;30315;46.072;14.474;2023-03-14T01:18:38;14.80;59.80
44607;DHT22;30315;46.072;14.474;2023-03-14T01:21:21;14.80;59.90
44607;DHT22;30315;46.072;14.474;2023-03-14T01:23:49;14.70;59.90
44607;DHT22;30315;46.072;14.474;2023-03-14T01:26:19;14.70;60.00
44607;DHT22;30315;46.072;14.474;2023-03-14T01:28:47;14.70;60.10
44607;DHT22;30315;46.072;14.474;2023-03-14T01:31:15;14.70;60.20
44607;DHT22;30315;46.072;14.474;2023-03-14T01:33:43;14.70;60.10
44607;DHT22;30315;46.072;14.474;2023-03-14T01:36:10;14.70;59.90
44607;DHT22;30315;46.072;14.474;2023-03-14T01:38:39;14.70;60.00
44607;DHT22;30315;46.072;14.474;2023-03-14T01:41:14;14.70;60.00
44607;DHT22;30315;46.072;14.474;2023-03-14T01:43:43;14.70;60.40
44607;DHT22;30315;46.072;14.474;2023-03-14T01:51:56;14.70;60.70
44607;DHT22;30315;46.072;14.474;2023-03-14T01:59:31;14.70;61.40
44607;DHT22;30315;46.072;14.474;2023-03-14T02:01:59;14.60;61.40
44607;DHT22;30315;46.072;14.474;2023-03-14T02:04:32;14.70;61.80
44607;DHT22;30315;46.072;14.474;2023-03-14T02:07:07;14.70;62.00
44607;DHT22;30315;46.072;14.474;2023-03-14T02:09:40;14.60;62.30
44607;DHT22;30315;46.072;14.474;2023-03-14T02:12:15;14.60;62.40
44607;DHT22;30315;46.072;14.474;2023-03-14T02:14:46;14.60;62.80
44607;DHT22;30315;46.072;14.474;2023-03-14T02:20:28;14.60;63.10
44607;DHT22;30315;46.072;14.474;2023-03-14T02:22:58;14.50;63.10
44607;DHT22;30315;46.072;14.474;2023-03-14T02:28:01;14.50;63.60
44607;DHT22;30315;46.072;14.474;2023-03-14T02:30:30;14.40;63.70
44607;DHT22;30315;46.072;14.474;2023-03-14T02:33:04;14.40;64.00
44607;DHT22;30315;46.072;14.474;2023-03-14T02:35:42;14.40;64.20
44607;DHT22;30315;46.072;14.474;2023-03-14T02:38:24;14.40;64.30
44607;DHT22;30315;46.072;14.474;2023-03-14T02:40:53;14.40;64.30
44607;DHT22;30315;46.072;14.474;2023-03-14T02:43:21;14.40;64.50
44607;DHT22;30315;46.072;14.474;2023-03-14T02:45:55;14.40;65.30
44607;DHT22;30315;46.072;14.474;2023-03-14T02:48:33;14.40;64.60
44607;DHT22;30315;46.072;14.474;2023-03-14T02:51:01;14.40;64.70
44607;DHT22;30315;46.072;14.474;2023-03-14T02:53:32;14.40;65.40
44607;DHT22;30315;46.072;14.474;2023-03-14T02:56:05;14.40;64.80
44607;DHT22;30315;46.072;14.474;2023-03-14T02:58:33;14.40;64.80
44607;DHT22;30315;46.072;14.474;2023-03-14T03:01:09;14.40;64.90
44607;DHT22;30315;46.072;14.474;2023-03-14T03:03:37;14.40;64.90
44607;DHT22;30315;46.072;14.474;2023-03-14T03:06:04;14.50;65.00
44607;DHT22;30315;46.072;14.474;2023-03-14T03:08:31;14.40;64.90
44607;DHT22;30315;46.072;14.474;2023-03-14T03:10:59;14.50;65.10
44607;DHT22;30315;46.072;14.474;2023-03-14T03:13:29;14.50;65.10
44607;DHT22;30315;46.072;14.474;2023-03-14T03:15:59;14.50;65.10
44607;DHT22;30315;46.072;14.474;2023-03-14T03:18:26;14.50;65.20
44607;DHT22;30315;46.072;14.474;2023-03-14T03:20:53;14.50;65.20
44607;DHT22;30315;46.072;14.474;2023-03-14T03:23:21;14.50;65.30
44607;DHT22;30315;46.072;14.474;2023-03-14T03:25:50;14.50;65.30
44607;DHT22;30315;46.072;14.474;2023-03-14T03:28:18;14.50;65.40
44607;DHT22;30315;46.072;14.474;2023-03-14T03:30:45;14.50;65.50
44607;DHT22;30315;46.072;14.474;2023-03-14T03:33:12;14.50;65.60
44607;DHT22;30315;46.072;14.474;2023-03-14T03:35:48;14.50;65.80
44607;DHT22;30315;46.072;14.474;2023-03-14T03:38:21;14.50;65.80
44607;DHT22;30315;46.072;14.474;2023-03-14T03:40:51;14.50;65.90
44607;DHT22;30315;46.072;14.474;2023-03-14T03:43:19;14.50;66.20
44607;DHT22;30315;46.072;14.474;2023-03-14T03:45:48;14.50;66.20
44607;DHT22;30315;46.072;14.474;2023-03-14T03:48:15;14.50;66.30
44607;DHT22;30315;46.072;14.474;2023-03-14T03:50:46;14.50;66.30
44607;DHT22;30315;46.072;14.474;2023-03-14T03:53:17;14.50;66.40
44607;DHT22;30315;46.072;14.474;2023-03-14T03:56:01;14.60;66.70
44607;DHT22;30315;46.072;14.474;2023-03-14T03:58:28;14.60;67.00
44607;DHT22;30315;46.072;14.474;2023-03-14T04:00:55;14.60;67.30
44607;DHT22;30315;46.072;14.474;2023-03-14T04:03:22;14.60;67.50
44607;DHT22;30315;46.072;14.474;2023-03-14T04:06:11;14.70;67.90
44607;DHT22;30315;46.072;14.474;2023-03-14T04:08:40;14.70;68.00
44607;DHT22;30315;46.072;14.474;2023-03-14T04:11:30;14.70;68.10
44607;DHT22;30315;46.072;14.474;2023-03-14T04:14:20;14.70;68.10
44607;DHT22;30315;46.072;14.474;2023-03-14T04:16:54;14.80;68.10
44607;DHT22;30315;46.072;14.474;2023-03-14T04:19:22;14.80;68.10
44607;DHT22;30315;46.072;14.474;2023-03-14T04:21:51;14.80;68.10
44607;DHT22;30315;46.072;14.474;2023-03-14T04:24:20;14.80;68.10
44607;DHT22;30315;46.072;14.474;2023-03-14T04:26:48;14.80;68.00
44607;DHT22;30315;46.072;14.474;2023-03-14T04:29:15;14.70;68.00
44607;DHT22;30315;46.072;14.474;2023-03-14T04:31:44;14.70;68.10
44607;DHT22;30315;46.072;14.474;2023-03-14T04:34:11;14.70;68.20
44607;DHT22;30315;46.072;14.474;2023-03-14T04:36:47;14.70;68.20
44607;DHT22;30315;46.072;14.474;2023-03-14T04:39:20;14.70;68.20
44607;DHT22;30315;46.072;14.474;2023-03-14T04:41:56;14.70;68.20
44607;DHT22;30315;46.072;14.474;2023-03-14T04:44:23;14.70;68.20
44607;DHT22;30315;46.072;14.474;2023-03-14T04:46:52;14.60;68.20
44607;DHT22;30315;46.072;14.474;2023-03-14T04:49:20;14.60;68.30
44607;DHT22;30315;46.072;14.474;2023-03-14T04:51:47;14.60;68.40
44607;DHT22;30315;46.072;14.474;2023-03-14T04:54:14;14.60;68.50
44607;DHT22;30315;46.072;14.474;2023-03-14T04:56:41;14.60;68.60
44607;DHT22;30315;46.072;14.474;2023-03-14T04:59:08;14.60;68.70
44607;DHT22;30315;46.072;14.474;2023-03-14T05:01:38;14.60;68.70
44607;DHT22;30315;46.072;14.474;2023-03-14T05:04:23;14.50;68.70
44607;DHT22;30315;46.072;14.474;2023-03-14T05:07:03;14.50;68.90
44607;DHT22;30315;46.072;14.474;2023-03-14T05:09:44;14.50;69.00
44607;DHT22;30315;46.072;14.474;2023-03-14T05:12:25;14.50;69.00
44607;DHT22;30315;46.072;14.474;2023-03-14T05:15:02;14.50;69.00
44607;DHT22;30315;46.072;14.474;2023-03-14T05:17:57;14.50;69.00
44607;DHT22;30315;46.072;14.474;2023-03-14T05:20:56;14.50;69.00
44607;DHT22;30315;46.072;14.474;2023-03-14T05:23:45;14.60;69.10
44607;DHT22;30315;46.072;14.474;2023-03-14T05:26:23;14.50;69.00
44607;DHT22;30315;46.072;14.474;2023-03-14T05:29:10;14.50;69.00
44607;DHT22;30315;46.072;14.474;2023-03-14T05:31:48;14.50;69.00
44607;DHT22;30315;46.072;14.474;2023-03-14T05:34:25;14.10;68.60
44607;DHT22;30315;46.072;14.474;2023-03-14T05:37:07;14.50;69.00
44607;DHT22;30315;46.072;14.474;2023-03-14T05:40:13;14.50;68.80
44607;DHT22;30315;46.072;14.474;2023-03-14T05:43:00;14.50;68.70
44607;DHT22;30315;46.072;14.474;2023-03-14T05:45:55;14.60;68.60
44607;DHT22;30315;46.072;14.474;2023-03-14T05:48:38;14.60;68.40
44607;DHT22;30315;46.072;14.474;2023-03-14T05:51:23;14.60;68.20
44607;DHT22;30315;46.072;14.474;2023-03-14T05:54:17;14.60;68.00
44607;DHT22;30315;46.072;14.474;2023-03-14T05:57:06;14.60;67.80
44607;DHT22;30315;46.072;14.474;2023-03-14T06:00:03;14.60;67.50
44607;DHT22;30315;46.072;14.474;2023-03-14T06:02:48;14.60;67.40
44607;DHT22;30315;46.072;14.474;2023-03-14T06:05:21;14.60;67.50
44607;DHT22;30315;46.072;14.474;2023-03-14T06:07:52;14.60;67.20
44607;DHT22;30315;46.072;14.474;2023-03-14T06:10:20;14.70;67.20
44607;DHT22;30315;46.072;14.474;2023-03-14T06:12:47;14.70;67.00
44607;DHT22;30315;46.072;14.474;2023-03-14T06:15:14;14.80;66.80
44607;DHT22;30315;46.072;14.474;2023-03-14T06:17:43;15.00;66.70
44607;DHT22;30315;46.072;14.474;2023-03-14T06:20:12;15.00;66.30
44607;DHT22;30315;46.072;14.474;2023-03-14T06:22:40;15.00;65.90
44607;DHT22;30315;46.072;14.474;2023-03-14T06:25:10;15.10;65.70
44607;DHT22;30315;46.072;14.474;2023-03-14T06:27:37;15.20;65.50
44607;DHT22;30315;46.072;14.474;2023-03-14T06:30:05;15.20;65.10
44607;DHT22;30315;46.072;14.474;2023-03-14T06:32:32;15.20;64.50
44607;DHT22;30315;46.072;14.474;2023-03-14T06:35:05;15.20;64.40
44607;DHT22;30315;46.072;14.474;2023-03-14T06:37:37;15.20;64.50
44607;DHT22;30315;46.072;14.474;2023-03-14T06:40:05;15.30;64.30
44607;DHT22;30315;46.072;14.474;2023-03-14T06:43:00;15.40;64.00
44607;DHT22;30315;46.072;14.474;2023-03-14T06:45:29;15.40;63.60
44607;DHT22;30315;46.072;14.474;2023-03-14T06:47:57;15.40;64.90
44607;DHT22;30315;46.072;14.474;2023-03-14T06:50:34;15.50;65.40
44607;DHT22;30315;46.072;14.474;2023-03-14T06:53:01;15.60;63.50
44607;DHT22;30315;46.072;14.474;2023-03-14T06:55:29;15.60;62.70
44607;DHT22;30315;46.072;14.474;2023-03-14T06:57:56;15.70;62.20
44607;DHT22;30315;46.072;14.474;2023-03-14T07:00:23;15.60;61.90
44607;DHT22;30315;46.072;14.474;2023-03-14T07:02:54;15.70;63.40
44607;DHT22;30315;46.072;14.474;2023-03-14T07:05:28;15.70;61.90
44607;DHT22;30315;46.072;14.474;2023-03-14T07:07:56;15.70;61.10
44607;DHT22;30315;46.072;14.474;2023-03-14T07:10:23;15.70;61.20
44607;DHT22;30315;46.072;14.474;2023-03-14T07:12:50;15.70;61.20
44607;DHT22;30315;46.072;14.474;2023-03-14T07:15:22;15.60;61.40
44607;DHT22;30315;46.072;14.474;2023-03-14T07:17:55;15.50;62.70
44607;DHT22;30315;46.072;14.474;2023-03-14T07:20:23;15.50;63.30
44607;DHT22;30315;46.072;14.474;2023-03-14T07:22:51;15.30;63.80
44607;DHT22;30315;46.072;14.474;2023-03-14T07:25:26;15.30;64.40
44607;DHT22;30315;46.072;14.474;2023-03-14T07:27:53;15.20;64.50
44607;DHT22;30315;46.072;14.474;2023-03-14T07:30:20;15.20;64.60
44607;DHT22;30315;46.072;14.474;2023-03-14T07:32:51;15.00;64.50
44607;DHT22;30315;46.072;14.474;2023-03-14T07:35:22;14.90;64.80
44607;DHT22;30315;46.072;14.474;2023-03-14T07:37:57;15.00;64.90
44607;DHT22;30315;46.072;14.474;2023-03-14T07:40:41;15.00;65.10
44607;DHT22;30315;46.072;14.474;2023-03-14T07:43:12;15.00;65.30
44607;DHT22;30315;46.072;14.474;2023-03-14T07:45:47;15.00;65.20
44607;DHT22;30315;46.072;14.474;2023-03-14T07:48:25;15.20;65.50
44607;DHT22;30315;46.072;14.474;2023-03-14T07:50:54;15.20;64.90
44607;DHT22;30315;46.072;14.474;2023-03-14T07:53:26;15.20;65.10
44607;DHT22;30315;46.072;14.474;2023-03-14T07:55:58;15.40;65.00
44607;DHT22;30315;46.072;14.474;2023-03-14T07:58:25;15.40;64.80
44607;DHT22;30315;46.072;14.474;2023-03-14T08:00:52;15.50;64.40
44607;DHT22;30315;46.072;14.474;2023-03-14T08:03:20;15.50;64.50
44607;DHT22;30315;46.072;14.474;2023-03-14T08:05:47;15.40;64.40
44607;DHT22;30315;46.072;14.474;2023-03-14T08:08:23;15.40;64.70
44607;DHT22;30315;46.072;14.474;2023-03-14T08:10:50;15.40;64.30
44607;DHT22;30315;46.072;14.474;2023-03-14T08:13:17;15.50;64.60
44607;DHT22;30315;46.072;14.474;2023-03-14T08:15:48;15.50;64.30
44607;DHT22;30315;46.072;14.474;2023-03-14T08:18:16;15.40;64.70
44607;DHT22;30315;46.072;14.474;2023-03-14T08:20:42;15.50;64.60
44607;DHT22;30315;46.072;14.474;2023-03-14T08:23:09;15.50;64.80
44607;DHT22;30315;46.072;14.474;2023-03-14T08:25:37;15.50;64.80
44607;DHT22;30315;46.072;14.474;2023-03-14T08:28:05;15.60;64.90
44607;DHT22;30315;46.072;14.474;2023-03-14T08:30:32;15.60;64.20
44607;DHT22;30315;46.072;14.474;2023-03-14T08:32:59;15.60;64.70
44607;DHT22;30315;46.072;14.474;2023-03-14T08:35:26;15.70;64.20
44607;DHT22;30315;46.072;14.474;2023-03-14T08:37:54;15.90;63.90
44607;DHT22;30315;46.072;14.474;2023-03-14T08:40:20;15.80;62.50
44607;DHT22;30315;46.072;14.474;2023-03-14T08:42:48;15.90;62.80
44607;DHT22;30315;46.072;14.474;2023-03-14T08:45:15;15.90;62.10
44607;DHT22;30315;46.072;14.474;2023-03-14T08:47:44;16.00;62.20
44607;DHT22;30315;46.072;14.474;2023-03-14T08:50:12;16.10;61.80
44607;DHT22;30315;46.072;14.474;2023-03-14T08:52:42;16.20;62.60
44607;DHT22;30315;46.072;14.474;2023-03-14T08:55:10;16.30;60.60
44607;DHT22;30315;46.072;14.474;2023-03-14T08:57:37;16.30;60.60
44607;DHT22;30315;46.072;14.474;2023-03-14T09:00:05;16.40;60.70
44607;DHT22;30315;46.072;14.474;2023-03-14T09:02:39;16.50;60.10
44607;DHT22;30315;46.072;14.474;2023-03-14T09:05:07;16.50;59.70
44607;DHT22;30315;46.072;14.474;2023-03-14T09:07:35;16.50;59.40
44607;DHT22;30315;46.072;14.474;2023-03-14T09:10:02;16.50;59.30
44607;DHT22;30315;46.072;14.474;2023-03-14T09:12:30;16.50;58.90
44607;DHT22;30315;46.072;14.474;2023-03-14T09:14:57;16.40;58.60
44607;DHT22;30315;46.072;14.474;2023-03-14T09:17:24;16.30;58.70
44607;DHT22;30315;46.072;14.474;2023-03-14T09:19:51;16.20;58.80
44607;DHT22;30315;46.072;14.474;2023-03-14T09:22:18;16.20;58.70
44607;DHT22;30315;46.072;14.474;2023-03-14T09:24:45;16.20;59.00
44607;DHT22;30315;46.072;14.474;2023-03-14T09:27:13;16.20;59.10
44607;DHT22;30315;46.072;14.474;2023-03-14T09:29:39;16.20;59.30
44607;DHT22;30315;46.072;14.474;2023-03-14T09:32:07;16.10;59.40
44607;DHT22;30315;46.072;14.474;2023-03-14T09:34:34;16.10;59.60
44607;DHT22;30315;46.072;14.474;2023-03-14T09:37:02;16.00;59.60
44607;DHT22;30315;46.072;14.474;2023-03-14T09:39:29;16.00;59.50
44607;DHT22;30315;46.072;14.474;2023-03-14T09:42:02;15.90;59.30
44607;DHT22;30315;46.072;14.474;2023-03-14T09:44:32;15.80;58.50
44607;DHT22;30315;46.072;14.474;2023-03-14T09:47:06;15.60;58.70
44607;DHT22;30315;46.072;14.474;2023-03-14T09:49:37;15.70;59.30
44607;DHT22;30315;46.072;14.474;2023-03-14T09:52:20;15.60;59.50
44607;DHT22;30315;46.072;14.474;2023-03-14T09:54:58;15.50;59.30
44607;DHT22;30315;46.072;14.474;2023-03-14T09:57:27;15.40;59.30
44607;DHT22;30315;46.072;14.474;2023-03-14T09:59:59;15.40;59.00
44607;DHT22;30315;46.072;14.474;2023-03-14T10:02:34;15.40;59.30
44607;DHT22;30315;46.072;14.474;2023-03-14T10:05:07;15.20;59.60
44607;DHT22;30315;46.072;14.474;2023-03-14T10:07:34;15.10;59.00
44607;DHT22;30315;46.072;14.474;2023-03-14T10:10:13;15.10;59.80
44607;DHT22;30315;46.072;14.474;2023-03-14T10:12:54;15.00;59.90
44607;DHT22;30315;46.072;14.474;2023-03-14T10:15:28;15.00;61.00
44607;DHT22;30315;46.072;14.474;2023-03-14T10:17:59;15.00;61.40
44607;DHT22;30315;46.072;14.474;2023-03-14T10:20:35;15.00;62.10
44607;DHT22;30315;46.072;14.474;2023-03-14T10:23:05;15.00;62.30
44607;DHT22;30315;46.072;14.474;2023-03-14T10:25:35;15.10;62.50
44607;DHT22;30315;46.072;14.474;2023-03-14T10:28:24;15.00;62.20
44607;DHT22;30315;46.072;14.474;2023-03-14T10:30:52;15.00;62.90
44607;DHT22;30315;46.072;14.474;2023-03-14T10:33:22;15.10;62.90
44607;DHT22;30315;46.072;14.474;2023-03-14T10:35:59;15.20;61.70
44607;DHT22;30315;46.072;14.474;2023-03-14T10:38:35;15.20;62.00
44607;DHT22;30315;46.072;14.474;2023-03-14T10:41:27;15.30;62.10
44607;DHT22;30315;46.072;14.474;2023-03-14T10:43:58;15.40;62.00
44607;DHT22;30315;46.072;14.474;2023-03-14T10:46:30;15.50;62.00
44607;DHT22;30315;46.072;14.474;2023-03-14T10:49:36;15.60;61.60
44607;DHT22;30315;46.072;14.474;2023-03-14T10:52:25;15.80;62.00
44607;DHT22;30315;46.072;14.474;2023-03-14T10:55:11;15.80;61.60
44607;DHT22;30315;46.072;14.474;2023-03-14T10:57:43;15.90;61.40
44607;DHT22;30315;46.072;14.474;2023-03-14T11:00:21;16.00;61.10
44607;DHT22;30315;46.072;14.474;2023-03-14T11:05:43;15.90;60.80
44607;DHT22;30315;46.072;14.474;2023-03-14T11:08:37;15.80;60.70
44607;DHT22;30315;46.072;14.474;2023-03-14T11:11:27;15.70;60.90
44607;DHT22;30315;46.072;14.474;2023-03-14T11:16:51;15.60;61.50
44607;DHT22;30315;46.072;14.474;2023-03-14T11:27:43;15.60;63.10
44607;DHT22;30315;46.072;14.474;2023-03-14T11:32:56;15.40;64.80
44607;DHT22;30315;46.072;14.474;2023-03-14T11:35:30;15.40;66.00
44607;DHT22;30315;46.072;14.474;2023-03-14T11:38:29;15.30;66.90
44607;DHT22;30315;46.072;14.474;2023-03-14T11:40:58;15.30;67.30
44607;DHT22;30315;46.072;14.474;2023-03-14T11:43:35;15.20;67.80
44607;DHT22;30315;46.072;14.474;2023-03-14T11:48:45;15.10;67.90
44607;DHT22;30315;46.072;14.474;2023-03-14T11:51:24;15.10;67.90
44607;DHT22;30315;46.072;14.474;2023-03-14T11:57:05;15.20;67.70
44607;DHT22;30315;46.072;14.474;2023-03-14T12:02:35;15.40;68.30
44607;DHT22;30315;46.072;14.474;2023-03-14T12:13:13;15.80;66.90
44607;DHT22;30315;46.072;14.474;2023-03-14T12:15:47;15.60;65.50
44607;DHT22;30315;46.072;14.474;2023-03-14T12:20:59;15.50;66.30
44607;DHT22;30315;46.072;14.474;2023-03-14T12:23:28;15.60;66.70
44607;DHT22;30315;46.072;14.474;2023-03-14T12:26:16;15.50;66.20
44607;DHT22;30315;46.072;14.474;2023-03-14T12:48:21;15.90;66.40
44607;DHT22;30315;46.072;14.474;2023-03-14T12:51:12;15.90;66.30
44607;DHT22;30315;46.072;14.474;2023-03-14T12:59:26;16.00;65.50
44607;DHT22;30315;46.072;14.474;2023-03-14T13:02:09;16.10;65.50
44607;DHT22;30315;46.072;14.474;2023-03-14T13:04:50;16.00;65.50
44607;DHT22;30315;46.072;14.474;2023-03-14T13:10:27;16.10;66.10
44607;DHT22;30315;46.072;14.474;2023-03-14T13:13:09;16.20;65.80
44607;DHT22;30315;46.072;14.474;2023-03-14T13:15:42;16.20;65.60
44607;DHT22;30315;46.072;14.474;2023-03-14T13:20:44;16.20;65.40
44607;DHT22;30315;46.072;14.474;2023-03-14T13:23:27;16.30;65.50
44607;DHT22;30315;46.072;14.474;2023-03-14T13:25:54;16.30;65.20
44607;DHT22;30315;46.072;14.474;2023-03-14T13:28:22;16.30;65.10
44607;DHT22;30315;46.072;14.474;2023-03-14T13:30:55;16.30;65.00
44607;DHT22;30315;46.072;14.474;2023-03-14T13:33:24;16.30;65.10
44607;DHT22;30315;46.072;14.474;2023-03-14T13:35:59;16.30;65.60
44607;DHT22;30315;46.072;14.474;2023-03-14T13:38:29;16.30;66.10
44607;DHT22;30315;46.072;14.474;2023-03-14T13:41:00;16.20;66.50
44607;DHT22;30315;46.072;14.474;2023-03-14T13:43:36;16.10;66.90
44607;DHT22;30315;46.072;14.474;2023-03-14T13:46:15;16.00;66.90
44607;DHT22;30315;46.072;14.474;2023-03-14T13:48:48;16.00;65.90
44607;DHT22;30315;46.072;14.474;2023-03-14T13:51:20;15.90;65.10
44607;DHT22;30315;46.072;14.474;2023-03-14T13:53:49;15.80;64.10
44607;DHT22;30315;46.072;14.474;2023-03-14T13:56:19;15.80;64.30
44607;DHT22;30315;46.072;14.474;2023-03-14T13:58:46;15.80;65.00
44607;DHT22;30315;46.072;14.474;2023-03-14T14:03:42;15.80;65.30
44607;DHT22;30315;46.072;14.474;2023-03-14T14:06:23;15.70;65.00
44607;DHT22;30315;46.072;14.474;2023-03-14T14:08:53;15.80;65.30
44607;DHT22;30315;46.072;14.474;2023-03-14T14:14:17;15.80;64.20
44607;DHT22;30315;46.072;14.474;2023-03-14T14:16:46;15.80;64.50
44607;DHT22;30315;46.072;14.474;2023-03-14T14:19:15;15.80;64.60
44607;DHT22;30315;46.072;14.474;2023-03-14T14:21:43;15.80;65.60
44607;DHT22;30315;46.072;14.474;2023-03-14T14:24:13;15.80;66.40
44607;DHT22;30315;46.072;14.474;2023-03-14T14:26:51;15.70;67.10
44607;DHT22;30315;46.072;14.474;2023-03-14T14:29:27;15.70;68.30
44607;DHT22;30315;46.072;14.474;2023-03-14T14:34:47;15.60;69.00
44607;DHT22;30315;46.072;14.474;2023-03-14T14:37:27;15.60;69.30
44607;DHT22;30315;46.072;14.474;2023-03-14T14:39:57;15.50;69.40
44607;DHT22;30315;46.072;14.474;2023-03-14T14:42:30;15.50;69.80
44607;DHT22;30315;46.072;14.474;2023-03-14T14:44:58;15.40;69.90
44607;DHT22;30315;46.072;14.474;2023-03-14T14:47:28;15.30;70.20
44607;DHT22;30315;46.072;14.474;2023-03-14T14:49:59;15.30;70.20
44607;DHT22;30315;46.072;14.474;2023-03-14T14:52:43;15.30;70.30
44607;DHT22;30315;46.072;14.474;2023-03-14T14:55:17;15.30;70.50
44607;DHT22;30315;46.072;14.474;2023-03-14T14:57:53;15.20;70.60
44607;DHT22;30315;46.072;14.474;2023-03-14T15:00:25;15.20;70.80
44607;DHT22;30315;46.072;14.474;2023-03-14T15:02:55;15.20;70.70
44607;DHT22;30315;46.072;14.474;2023-03-14T15:05:27;15.20;70.40
44607;DHT22;30315;46.072;14.474;2023-03-14T15:07:54;15.20;69.90
44607;DHT22;30315;46.072;14.474;2023-03-14T15:10:23;15.20;69.80
44607;DHT22;30315;46.072;14.474;2023-03-14T15:12:51;15.10;69.90
44607;DHT22;30315;46.072;14.474;2023-03-14T15:15:18;15.00;70.10
44607;DHT22;30315;46.072;14.474;2023-03-14T15:17:45;15.00;70.30
44607;DHT22;30315;46.072;14.474;2023-03-14T15:20:16;15.10;70.40
44607;DHT22;30315;46.072;14.474;2023-03-14T15:22:45;15.10;70.30
44607;DHT22;30315;46.072;14.474;2023-03-14T15:25:12;15.10;70.30
44607;DHT22;30315;46.072;14.474;2023-03-14T15:27:59;15.10;70.40
44607;DHT22;30315;46.072;14.474;2023-03-14T15:30:26;15.10;70.40
44607;DHT22;30315;46.072;14.474;2023-03-14T15:32:53;15.10;70.40
44607;DHT22;30315;46.072;14.474;2023-03-14T15:35:20;15.00;70.70
44607;DHT22;30315;46.072;14.474;2023-03-14T15:37:47;15.10;71.10
44607;DHT22;30315;46.072;14.474;2023-03-14T15:40:15;15.00;71.20
44607;DHT22;30315;46.072;14.474;2023-03-14T15:42:42;15.00;71.60
44607;DHT22;30315;46.072;14.474;2023-03-14T15:45:09;15.00;71.90
44607;DHT22;30315;46.072;14.474;2023-03-14T15:47:36;15.00;72.00
44607;DHT22;30315;46.072;14.474;2023-03-14T15:50:04;14.70;72.20
44607;DHT22;30315;46.072;14.474;2023-03-14T15:52:31;14.90;73.30
44607;DHT22;30315;46.072;14.474;2023-03-14T15:54:58;14.80;73.50
44607;DHT22;30315;46.072;14.474;2023-03-14T15:57:25;14.80;73.70
44607;DHT22;30315;46.072;14.474;2023-03-14T15:59:52;14.80;74.10
44607;DHT22;30315;46.072;14.474;2023-03-14T16:02:19;14.80;74.50
44607;DHT22;30315;46.072;14.474;2023-03-14T16:04:46;14.70;74.90
44607;DHT22;30315;46.072;14.474;2023-03-14T16:07:13;14.70;75.40
44607;DHT22;30315;46.072;14.474;2023-03-14T16:09:40;14.60;75.40
44607;DHT22;30315;46.072;14.474;2023-03-14T16:12:08;14.70;75.80
44607;DHT22;30315;46.072;14.474;2023-03-14T16:14:35;14.70;76.00
44607;DHT22;30315;46.072;14.474;2023-03-14T16:17:02;14.60;75.70
44607;DHT22;30315;46.072;14.474;2023-03-14T16:19:29;14.60;76.00
44607;DHT22;30315;46.072;14.474;2023-03-14T16:21:57;14.60;76.10
44607;DHT22;30315;46.072;14.474;2023-03-14T16:24:24;14.60;76.00
44607;DHT22;30315;46.072;14.474;2023-03-14T16:26:51;14.60;76.10
44607;DHT22;30315;46.072;14.474;2023-03-14T16:29:18;14.60;76.00
44607;DHT22;30315;46.072;14.474;2023-03-14T16:31:45;14.60;76.30
44607;DHT22;30315;46.072;14.474;2023-03-14T16:34:13;14.60;77.10
44607;DHT22;30315;46.072;14.474;2023-03-14T16:36:40;14.50;77.40
44607;DHT22;30315;46.072;14.474;2023-03-14T16:39:07;14.50;77.40
44607;DHT22;30315;46.072;14.474;2023-03-14T16:41:34;14.50;77.30
44607;DHT22;30315;46.072;14.474;2023-03-14T16:44:02;14.50;77.40
44607;DHT22;30315;46.072;14.474;2023-03-14T16:46:29;14.40;77.40
44607;DHT22;30315;46.072;14.474;2023-03-14T16:48:56;14.40;77.40
44607;DHT22;30315;46.072;14.474;2023-03-14T16:51:23;14.40;77.80
44607;DHT22;30315;46.072;14.474;2023-03-14T16:53:50;14.40;78.10
44607;DHT22;30315;46.072;14.474;2023-03-14T16:56:18;14.30;78.10
44607;DHT22;30315;46.072;14.474;2023-03-14T16:58:45;14.30;78.50
44607;DHT22;30315;46.072;14.474;2023-03-14T17:01:14;14.30;78.60
44607;DHT22;30315;46.072;14.474;2023-03-14T17:03:46;14.30;78.90
44607;DHT22;30315;46.072;14.474;2023-03-14T17:06:19;14.30;79.30
44607;DHT22;30315;46.072;14.474;2023-03-14T17:08:49;14.20;79.40
44607;DHT22;30315;46.072;14.474;2023-03-14T17:11:17;14.20;79.70
44607;DHT22;30315;46.072;14.474;2023-03-14T17:13:44;14.20;80.00
44607;DHT22;30315;46.072;14.474;2023-03-14T17:16:11;14.10;79.70